Time;durP1;ratioP1;P1;durP2;ratioP2;P2;SDS_P1;SDS_P2;PMS_P1;PMS_P2;Temp;Humidity;BMP_temperature;BMP_pressure;BME280_temperature;BME280_humidity;BME280_pressure;Samples;Min_cycle;Max_cycle;Signal;HPM_P1;HPM_P2
2022/07/12 00:01:32;;;;;;;12.38;2.47;;;;;;;;;;5086678;28;20043;-75
2022/07/12 00:04:00;;;;;;;6.43;1.73;;;;;;;;;;5061931;28;20046;-74
2022/07/12 00:06:27;;;;;;;8.75;2.00;;;;;;;;;;5085433;28;20031;-73
2022/07/12 00:08:55;;;;;;;6.93;1.80;;;;;;;;;;5064094;28;20027;-74
2022/07/12 00:11:21;;;;;;;8.32;1.80;;;;;;;;;;5080235;28;20036;-74
2022/07/12 00:13:48;;;;;;;6.80;1.80;;;;;;;;;;5077950;28;20121;-74
2022/07/12 00:16:16;;;;;;;9.15;2.00;;;;;;;;;;5065200;28;20600;-74
2022/07/12 00:18:43;;;;;;;7.13;1.98;;;;;;;;;;5064956;28;20054;-74
2022/07/12 00:21:09;;;;;;;5.43;1.98;;;;;;;;;;5087296;27;20936;-74
2022/07/12 00:23:36;;;;;;;7.65;2.17;;;;;;;;;;5088444;27;20034;-74
2022/07/12 00:26:04;;;;;;;6.90;2.03;;;;;;;;;;5085870;28;20144;-73
2022/07/12 00:28:30;;;;;;;6.63;1.80;;;;;;;;;;5088163;27;20605;-73
2022/07/12 00:30:58;;;;;;;6.13;1.73;;;;;;;;;;5085061;28;20380;-73
2022/07/12 00:33:25;;;;;;;5.90;2.20;;;;;;;;;;5093542;27;20032;-74
2022/07/12 00:35:52;;;;;;;6.65;2.25;;;;;;;;;;5068332;28;20364;-74
2022/07/12 00:38:20;;;;;;;6.10;2.08;;;;;;;;;;5072824;28;20146;-73
2022/07/12 00:40:51;;;;;;;6.13;1.85;;;;;;;;;;5065636;28;20030;-73
2022/07/12 00:43:18;;;;;;;7.28;2.10;;;;;;;;;;5068111;28;20416;-73
2022/07/12 00:45:45;;;;;;;6.72;2.00;;;;;;;;;;5085314;27;20106;-73
2022/07/12 00:48:14;;;;;;;7.28;1.77;;;;;;;;;;5073760;28;20356;-74
2022/07/12 00:50:41;;;;;;;8.35;1.90;;;;;;;;;;5084052;28;20035;-74
2022/07/12 00:53:09;;;;;;;7.78;1.83;;;;;;;;;;5084381;27;20104;-73
2022/07/12 00:55:37;;;;;;;5.13;1.50;;;;;;;;;;5067776;28;20336;-73
2022/07/12 00:58:07;;;;;;;5.53;1.63;;;;;;;;;;5061875;28;20043;-73
2022/07/12 01:00:38;;;;;;;5.43;1.58;;;;;;;;;;5075353;28;20555;-75
2022/07/12 01:03:06;;;;;;;6.78;2.00;;;;;;;;;;5089496;27;20427;-74
2022/07/12 01:05:33;;;;;;;6.30;1.85;;;;;;;;;;5072197;28;20382;-74
2022/07/12 01:08:01;;;;;;;4.72;1.60;;;;;;;;;;5083052;28;20035;-74
2022/07/12 01:10:28;;;;;;;6.47;1.83;;;;;;;;;;5086414;27;20487;-74
2022/07/12 01:13:05;;;;;;;4.68;1.52;;;;;;;;;;5085162;27;20643;-74
2022/07/12 01:15:32;;;;;;;5.65;1.92;;;;;;;;;;5070033;28;20031;-74
2022/07/12 01:18:01;;;;;;;9.73;2.05;;;;;;;;;;5082636;28;20135;-73
2022/07/12 01:20:29;;;;;;;6.53;1.77;;;;;;;;;;5085880;28;20446;-73
2022/07/12 01:22:58;;;;;;;9.10;1.98;;;;;;;;;;5065287;28;20036;-72
2022/07/12 01:25:25;;;;;;;9.05;1.92;;;;;;;;;;5067325;28;20040;-73
2022/07/12 01:27:53;;;;;;;7.03;1.83;;;;;;;;;;5062749;28;20016;-73
2022/07/12 01:30:19;;;;;;;7.40;1.95;;;;;;;;;;5087403;28;20034;-73
2022/07/12 01:32:47;;;;;;;6.35;1.98;;;;;;;;;;5065707;28;20135;-73
2022/07/12 01:35:14;;;;;;;6.57;1.90;;;;;;;;;;5087354;27;20026;-73
2022/07/12 01:37:45;;;;;;;6.05;1.70;;;;;;;;;;5085088;28;20107;-73
2022/07/12 01:40:15;;;;;;;6.25;1.80;;;;;;;;;;5067386;28;20028;-72
2022/07/12 01:42:44;;;;;;;8.02;1.58;;;;;;;;;;5082182;27;20219;-73
2022/07/12 01:45:12;;;;;;;10.05;1.80;;;;;;;;;;5085585;28;20032;-75
2022/07/12 01:47:40;;;;;;;7.38;1.70;;;;;;;;;;5081479;27;20035;-73
2022/07/12 01:50:08;;;;;;;8.40;1.70;;;;;;;;;;5063236;28;20035;-72
2022/07/12 01:52:36;;;;;;;6.68;1.70;;;;;;;;;;5068288;28;20064;-72
2022/07/12 01:55:04;;;;;;;6.88;1.60;;;;;;;;;;5085974;27;20118;-73
2022/07/12 01:57:32;;;;;;;9.23;1.73;;;;;;;;;;5086358;27;20027;-73
2022/07/12 02:00:01;;;;;;;6.18;1.80;;;;;;;;;;5062993;28;20400;-72
2022/07/12 02:02:30;;;;;;;7.75;1.70;;;;;;;;;;5084665;27;20240;-72
2022/07/12 02:05:00;;;;;;;7.10;1.65;;;;;;;;;;5083431;27;20593;-74
2022/07/12 02:07:27;;;;;;;4.68;1.60;;;;;;;;;;5086235;28;20039;-74
2022/07/12 02:09:53;;;;;;;7.32;1.50;;;;;;;;;;5082230;28;20023;-74
2022/07/12 02:12:21;;;;;;;7.10;1.63;;;;;;;;;;5088176;28;20596;-72
2022/07/12 02:14:48;;;;;;;5.25;1.52;;;;;;;;;;5067909;28;20075;-74
2022/07/12 02:17:16;;;;;;;4.90;1.45;;;;;;;;;;5070014;28;20146;-73
2022/07/12 02:19:44;;;;;;;5.38;1.58;;;;;;;;;;5089231;27;20024;-74
2022/07/12 02:22:12;;;;;;;4.57;1.48;;;;;;;;;;5070686;28;20041;-73
2022/07/12 02:24:39;;;;;;;6.25;1.60;;;;;;;;;;5065868;27;20027;-74
2022/07/12 02:27:07;;;;;;;6.57;1.60;;;;;;;;;;5090305;27;20203;-73
2022/07/12 02:29:35;;;;;;;4.82;1.40;;;;;;;;;;5084793;28;20019;-73
2022/07/12 02:32:03;;;;;;;7.20;1.65;;;;;;;;;;5086588;28;20192;-73
2022/07/12 02:34:30;;;;;;;7.45;1.80;;;;;;;;;;5086345;27;20115;-74
2022/07/12 02:36:57;;;;;;;5.95;1.67;;;;;;;;;;5063985;27;20100;-73
2022/07/12 02:39:31;;;;;;;5.65;1.70;;;;;;;;;;5087043;27;20220;-73
2022/07/12 02:41:59;;;;;;;6.93;1.55;;;;;;;;;;5085600;28;20113;-74
2022/07/12 02:44:26;;;;;;;4.97;1.50;;;;;;;;;;5072451;28;20027;-74
2022/07/12 02:46:54;;;;;;;4.25;1.30;;;;;;;;;;5065733;28;20433;-73
2022/07/12 02:49:21;;;;;;;6.88;1.75;;;;;;;;;;5068138;28;20052;-75
2022/07/12 02:51:49;;;;;;;7.53;1.65;;;;;;;;;;5059681;28;20455;-73
2022/07/12 02:54:16;;;;;;;6.07;1.70;;;;;;;;;;5082106;28;20031;-73
2022/07/12 02:56:44;;;;;;;5.60;1.30;;;;;;;;;;5069533;28;20037;-73
2022/07/12 02:59:11;;;;;;;5.90;1.60;;;;;;;;;;5060532;28;21666;-73
2022/07/12 03:01:39;;;;;;;4.45;1.52;;;;;;;;;;5075737;27;20036;-72
2022/07/12 03:04:06;;;;;;;5.50;1.45;;;;;;;;;;5064023;28;20027;-73
2022/07/12 03:06:35;;;;;;;7.18;1.70;;;;;;;;;;5083406;28;20023;-74
2022/07/12 03:09:03;;;;;;;7.28;1.70;;;;;;;;;;5081163;28;20809;-73
2022/07/12 03:11:29;;;;;;;6.15;1.55;;;;;;;;;;5082888;28;20042;-73
2022/07/12 03:13:56;;;;;;;5.68;1.75;;;;;;;;;;5062375;28;20699;-74
2022/07/12 03:16:23;;;;;;;6.15;1.65;;;;;;;;;;5066252;28;20043;-74
2022/07/12 03:18:50;;;;;;;6.40;1.73;;;;;;;;;;5077876;27;20023;-74
2022/07/12 03:21:18;;;;;;;8.73;1.50;;;;;;;;;;5084392;28;20042;-73
2022/07/12 03:23:45;;;;;;;4.88;1.40;;;;;;;;;;5083776;27;20287;-73
2022/07/12 03:26:13;;;;;;;5.47;1.48;;;;;;;;;;5064685;28;20082;-72
2022/07/12 03:28:40;;;;;;;6.35;1.60;;;;;;;;;;5056932;28;20595;-74
2022/07/12 03:31:08;;;;;;;4.35;1.30;;;;;;;;;;5083221;27;20557;-75
2022/07/12 03:33:38;;;;;;;6.50;1.60;;;;;;;;;;5081921;28;20039;-72
2022/07/12 03:36:08;;;;;;;7.38;1.70;;;;;;;;;;5061904;28;20605;-73
2022/07/12 03:38:36;;;;;;;4.85;1.48;;;;;;;;;;5081115;27;20028;-73
2022/07/12 03:41:04;;;;;;;6.70;1.58;;;;;;;;;;5078141;27;20476;-73
2022/07/12 03:43:31;;;;;;;7.63;1.70;;;;;;;;;;5064235;28;20042;-73
2022/07/12 03:45:58;;;;;;;4.57;1.50;;;;;;;;;;5057011;28;20058;-73
2022/07/12 03:48:26;;;;;;;6.18;1.70;;;;;;;;;;5081644;28;20648;-73
2022/07/12 03:50:53;;;;;;;6.35;1.67;;;;;;;;;;5076027;28;20486;-73
2022/07/12 03:53:21;;;;;;;7.13;1.58;;;;;;;;;;5060152;28;20130;-73
2022/07/12 03:55:49;;;;;;;7.78;1.70;;;;;;;;;;5056035;28;20027;-73
2022/07/12 03:58:18;;;;;;;7.15;1.83;;;;;;;;;;5060048;28;20067;-73
2022/07/12 04:00:44;;;;;;;6.32;1.70;;;;;;;;;;5080452;28;20807;-73
2022/07/12 04:03:12;;;;;;;5.18;1.50;;;;;;;;;;5063385;28;20125;-73
2022/07/12 04:05:40;;;;;;;8.13;1.75;;;;;;;;;;5075979;27;20078;-74
2022/07/12 04:08:06;;;;;;;7.70;1.75;;;;;;;;;;5080543;28;20451;-73
2022/07/12 04:10:32;;;;;;;6.43;1.60;;;;;;;;;;5076852;28;20053;-74
2022/07/12 04:13:00;;;;;;;6.07;1.85;;;;;;;;;;5078241;28;20032;-72
2022/07/12 04:15:27;;;;;;;7.35;1.80;;;;;;;;;;5093090;28;20035;-74
2022/07/12 04:17:55;;;;;;;6.47;1.80;;;;;;;;;;5064746;28;20284;-72
2022/07/12 04:20:22;;;;;;;10.60;1.85;;;;;;;;;;5057762;28;20558;-72
2022/07/12 04:22:49;;;;;;;11.05;1.90;;;;;;;;;;5072165;28;20393;-72
2022/07/12 04:25:17;;;;;;;10.43;2.05;;;;;;;;;;5080049;28;20036;-74
2022/07/12 04:27:44;;;;;;;9.57;1.92;;;;;;;;;;5057432;28;20458;-72
2022/07/12 04:30:12;;;;;;;12.05;2.17;;;;;;;;;;5078299;28;20024;-73
2022/07/12 04:32:38;;;;;;;8.77;1.90;;;;;;;;;;5075490;28;21546;-72
2022/07/12 04:35:05;;;;;;;7.93;1.77;;;;;;;;;;5076470;27;20586;-72
2022/07/12 04:37:33;;;;;;;7.60;1.95;;;;;;;;;;5059555;28;20445;-72
2022/07/12 04:39:59;;;;;;;12.68;2.03;;;;;;;;;;5070326;28;20071;-72
2022/07/12 04:42:26;;;;;;;12.07;2.28;;;;;;;;;;5081649;27;20415;-72
2022/07/12 04:44:54;;;;;;;8.18;2.00;;;;;;;;;;5058922;28;20031;-72
2022/07/12 04:47:21;;;;;;;13.32;2.42;;;;;;;;;;5079592;28;20153;-73
2022/07/12 04:49:49;;;;;;;11.00;2.17;;;;;;;;;;5077319;28;20043;-72
2022/07/12 04:52:16;;;;;;;11.80;2.28;;;;;;;;;;5076587;28;20032;-71
2022/07/12 04:54:42;;;;;;;10.77;2.25;;;;;;;;;;5074790;28;20103;-75
2022/07/12 04:57:10;;;;;;;10.23;1.92;;;;;;;;;;5085707;28;20036;-74
2022/07/12 04:59:37;;;;;;;6.57;1.70;;;;;;;;;;5058144;28;20243;-73
2022/07/12 05:02:05;;;;;;;6.25;2.00;;;;;;;;;;5082743;28;20046;-73
2022/07/12 05:04:33;;;;;;;9.85;2.03;;;;;;;;;;5082567;28;20035;-72
2022/07/12 05:07:00;;;;;;;19.92;2.70;;;;;;;;;;5056500;28;20066;-74
2022/07/12 05:09:28;;;;;;;13.23;2.75;;;;;;;;;;5078352;27;20027;-73
2022/07/12 05:11:54;;;;;;;16.75;2.80;;;;;;;;;;5079040;27;20028;-74
2022/07/12 05:14:21;;;;;;;7.40;2.13;;;;;;;;;;5084706;27;20040;-74
2022/07/12 05:16:50;;;;;;;9.75;2.30;;;;;;;;;;5065430;28;20371;-73
2022/07/12 05:19:16;;;;;;;10.40;2.22;;;;;;;;;;5083999;28;20040;-74
2022/07/12 05:21:42;;;;;;;8.52;2.30;;;;;;;;;;5080184;27;20043;-74
2022/07/12 05:24:10;;;;;;;7.72;2.00;;;;;;;;;;5066444;28;20064;-75
2022/07/12 05:26:37;;;;;;;7.60;1.90;;;;;;;;;;5025275;28;20119;-72
2022/07/12 05:29:05;;;;;;;13.02;2.45;;;;;;;;;;5031808;28;20024;-74
2022/07/12 05:31:32;;;;;;;6.57;1.85;;;;;;;;;;5031513;28;20128;-72
2022/07/12 05:34:00;;;;;;;7.00;1.85;;;;;;;;;;5021912;28;20024;-72
2022/07/12 05:36:28;;;;;;;12.90;2.33;;;;;;;;;;5042602;28;20091;-73
2022/07/12 05:38:55;;;;;;;7.93;1.92;;;;;;;;;;5038709;28;20064;-74
2022/07/12 05:41:21;;;;;;;6.50;1.52;;;;;;;;;;5042076;28;20379;-72
2022/07/12 05:43:49;;;;;;;5.45;1.50;;;;;;;;;;5049448;28;20102;-73
2022/07/12 05:46:16;;;;;;;7.30;1.60;;;;;;;;;;5029294;28;20028;-72
2022/07/12 05:48:43;;;;;;;6.35;1.63;;;;;;;;;;5041699;28;20035;-74
2022/07/12 05:53:57;;;;;;;6.20;1.70;;;;;;;;;;5043707;28;20107;-72
2022/07/12 05:56:25;;;;;;;7.25;1.85;;;;;;;;;;5048876;28;20032;-73
2022/07/12 05:58:52;;;;;;;4.97;1.40;;;;;;;;;;5031454;28;20123;-72
2022/07/12 06:01:21;;;;;;;8.27;1.70;;;;;;;;;;5031444;28;20131;-72
2022/07/12 06:03:47;;;;;;;5.88;1.63;;;;;;;;;;5037317;28;20040;-72
2022/07/12 06:06:14;;;;;;;7.05;1.65;;;;;;;;;;5044614;28;20042;-72
2022/07/12 06:08:42;;;;;;;5.35;1.70;;;;;;;;;;5045954;28;20521;-73
2022/07/12 06:11:09;;;;;;;6.07;1.33;;;;;;;;;;5028889;28;20106;-73
2022/07/12 06:13:37;;;;;;;6.85;1.85;;;;;;;;;;5034312;28;20418;-74
2022/07/12 06:16:05;;;;;;;7.47;1.80;;;;;;;;;;5044840;28;20027;-73
2022/07/12 06:18:35;;;;;;;10.43;2.05;;;;;;;;;;5018987;28;20036;-73
2022/07/12 06:21:02;;;;;;;8.95;1.80;;;;;;;;;;5053604;28;20028;-73
2022/07/12 06:23:30;;;;;;;13.38;2.45;;;;;;;;;;5052350;28;20048;-73
2022/07/12 06:26:01;;;;;;;21.30;2.75;;;;;;;;;;5028310;28;20161;-73
2022/07/12 06:28:29;;;;;;;20.02;2.85;;;;;;;;;;5050019;28;20079;-73
2022/07/12 06:30:56;;;;;;;12.48;2.78;;;;;;;;;;5029443;28;20547;-73
2022/07/12 06:33:23;;;;;;;19.35;2.80;;;;;;;;;;5049819;28;20037;-73
2022/07/12 06:35:50;;;;;;;14.40;2.35;;;;;;;;;;5026834;28;20119;-73
2022/07/12 06:38:19;;;;;;;16.35;3.05;;;;;;;;;;5030686;28;20778;-73
2022/07/12 06:40:47;;;;;;;11.05;2.42;;;;;;;;;;5044559;28;20332;-73
2022/07/12 06:43:13;;;;;;;9.25;2.00;;;;;;;;;;5053745;28;20028;-72
2022/07/12 06:45:41;;;;;;;12.80;2.60;;;;;;;;;;5026510;28;20032;-73
2022/07/12 06:48:08;;;;;;;12.20;3.00;;;;;;;;;;5032970;28;20112;-73
2022/07/12 06:50:34;;;;;;;8.40;2.28;;;;;;;;;;5031376;28;20025;-73
2022/07/12 06:53:02;;;;;;;13.57;3.28;;;;;;;;;;5043112;28;20025;-75
2022/07/12 06:55:30;;;;;;;14.35;2.42;;;;;;;;;;5031448;28;20039;-74
2022/07/12 06:57:58;;;;;;;13.73;3.70;;;;;;;;;;5030047;28;20697;-73
2022/07/12 07:00:25;;;;;;;14.40;2.95;;;;;;;;;;5030584;28;20526;-74
2022/07/12 07:02:52;;;;;;;11.80;2.97;;;;;;;;;;5048077;28;20028;-73
2022/07/12 07:05:20;;;;;;;17.55;3.72;;;;;;;;;;5052762;28;20032;-73
2022/07/12 07:07:48;;;;;;;14.70;3.30;;;;;;;;;;5034534;28;20036;-72
2022/07/12 07:10:15;;;;;;;13.50;3.40;;;;;;;;;;5046902;28;20303;-73
2022/07/12 07:12:43;;;;;;;10.77;2.60;;;;;;;;;;5039990;28;20396;-73
2022/07/12 07:15:09;;;;;;;14.05;2.20;;;;;;;;;;5028841;28;20025;-73
2022/07/12 07:17:36;;;;;;;14.10;2.22;;;;;;;;;;5024560;28;20493;-73
2022/07/12 07:20:04;;;;;;;8.75;1.95;;;;;;;;;;5046755;28;20036;-74
2022/07/12 07:22:31;;;;;;;12.10;2.10;;;;;;;;;;5032276;28;20033;-72
2022/07/12 07:24:58;;;;;;;9.82;1.80;;;;;;;;;;5046934;28;21092;-74
2022/07/12 07:27:25;;;;;;;7.10;1.38;;;;;;;;;;5026134;28;20036;-74
2022/07/12 07:32:39;;;;;;;5.60;1.63;;;;;;;;;;5045121;28;20082;-73
2022/07/12 07:35:12;;;;;;;6.90;1.52;;;;;;;;;;5029195;28;21524;-74
2022/07/12 07:37:39;;;;;;;11.35;2.03;;;;;;;;;;5027662;28;20125;-74
2022/07/12 07:40:07;;;;;;;4.47;1.27;;;;;;;;;;5025860;28;20143;-74
2022/07/12 07:42:35;;;;;;;9.10;1.80;;;;;;;;;;5031401;28;20042;-74
2022/07/12 07:45:06;;;;;;;9.10;1.67;;;;;;;;;;5049515;28;20477;-74
2022/07/12 07:47:46;;;;;;;8.02;1.48;;;;;;;;;;5047340;28;20024;-74
2022/07/12 07:50:13;;;;;;;5.65;1.35;;;;;;;;;;5048356;28;20031;-73
2022/07/12 07:52:39;;;;;;;10.25;1.60;;;;;;;;;;5025000;28;20493;-74
2022/07/12 07:55:06;;;;;;;5.55;1.50;;;;;;;;;;5027586;28;20101;-74
2022/07/12 07:57:32;;;;;;;8.40;1.70;;;;;;;;;;5046827;28;20040;-73
2022/07/12 07:59:59;;;;;;;9.05;1.67;;;;;;;;;;5045740;28;20028;-74
2022/07/12 08:02:27;;;;;;;4.88;1.40;;;;;;;;;;5032184;28;20048;-73
2022/07/12 08:04:53;;;;;;;5.25;1.48;;;;;;;;;;5043877;28;20443;-73
2022/07/12 08:07:20;;;;;;;5.90;1.40;;;;;;;;;;5049146;28;20097;-72
2022/07/12 08:09:48;;;;;;;6.63;1.60;;;;;;;;;;5042802;28;20453;-72
2022/07/12 08:12:14;;;;;;;6.07;1.27;;;;;;;;;;5031704;28;20115;-73
2022/07/12 08:14:41;;;;;;;7.28;1.50;;;;;;;;;;5026857;28;20496;-73
2022/07/12 08:17:09;;;;;;;5.88;1.30;;;;;;;;;;5047301;28;20059;-73
2022/07/12 08:19:36;;;;;;;7.13;1.80;;;;;;;;;;5028179;28;20056;-73
2022/07/12 08:22:04;;;;;;;7.80;1.70;;;;;;;;;;5046289;28;20558;-73
2022/07/12 08:24:31;;;;;;;7.40;1.65;;;;;;;;;;5027597;28;20408;-72
2022/07/12 08:26:59;;;;;;;9.30;1.90;;;;;;;;;;5043396;28;20032;-73
2022/07/12 08:29:26;;;;;;;6.78;1.50;;;;;;;;;;5029806;28;20035;-73
2022/07/12 08:31:55;;;;;;;7.22;1.70;;;;;;;;;;5026641;28;20128;-74
2022/07/12 08:34:22;;;;;;;5.07;1.40;;;;;;;;;;5038806;28;20036;-74
2022/07/12 08:36:49;;;;;;;6.18;1.40;;;;;;;;;;5025708;28;20154;-74
2022/07/12 08:39:17;;;;;;;8.38;1.38;;;;;;;;;;5034618;28;20484;-73
2022/07/12 08:41:44;;;;;;;7.63;1.50;;;;;;;;;;5043663;28;20072;-74
2022/07/12 08:44:11;;;;;;;9.20;1.42;;;;;;;;;;5034677;28;20039;-73
2022/07/12 08:46:39;;;;;;;10.65;1.80;;;;;;;;;;5047649;28;20384;-74
2022/07/12 08:49:10;;;;;;;8.60;1.48;;;;;;;;;;5052913;28;20070;-74
2022/07/12 08:51:40;;;;;;;8.52;1.70;;;;;;;;;;5029960;28;20028;-73
2022/07/12 08:54:10;;;;;;;4.68;1.30;;;;;;;;;;5049194;28;20030;-73
2022/07/12 08:56:38;;;;;;;8.70;1.33;;;;;;;;;;5029455;28;20041;-74
2022/07/12 08:59:24;;;;;;;11.68;1.92;;;;;;;;;;5064274;28;20032;-74
2022/07/12 09:01:56;;;;;;;6.30;1.40;;;;;;;;;;5046110;28;20032;-75
2022/07/12 09:04:30;;;;;;;8.05;1.55;;;;;;;;;;5034502;28;20036;-77
2022/07/12 09:07:00;;;;;;;14.27;1.48;;;;;;;;;;5027388;28;20395;-74
2022/07/12 09:09:36;;;;;;;8.25;1.45;;;;;;;;;;5032295;28;20040;-74
2022/07/12 09:12:04;;;;;;;5.85;1.48;;;;;;;;;;5048875;28;20052;-74
2022/07/12 09:14:31;;;;;;;6.15;1.45;;;;;;;;;;5050800;28;20035;-74
2022/07/12 09:17:04;;;;;;;6.47;1.50;;;;;;;;;;5045254;28;20143;-73
2022/07/12 09:19:32;;;;;;;7.05;1.30;;;;;;;;;;5043129;28;20970;-73
2022/07/12 09:21:59;;;;;;;6.60;1.33;;;;;;;;;;5022387;28;20030;-74
2022/07/12 09:24:27;;;;;;;4.95;1.25;;;;;;;;;;5039159;28;20099;-74
2022/07/12 09:27:00;;;;;;;14.35;2.33;;;;;;;;;;5027523;28;20677;-74
2022/07/12 09:29:28;;;;;;;9.25;1.50;;;;;;;;;;5023682;28;20288;-74
2022/07/12 09:37:27;;;;;;;14.00;2.22;;;;;;;;;;5040556;28;20071;-74
2022/07/12 09:39:53;;;;;;;10.15;1.60;;;;;;;;;;5025697;28;20028;-73
2022/07/12 09:42:21;;;;;;;5.90;1.30;;;;;;;;;;5023962;28;20506;-74
2022/07/12 09:44:48;;;;;;;21.05;2.28;;;;;;;;;;5021217;28;20476;-73
2022/07/12 09:47:16;;;;;;;8.00;1.80;;;;;;;;;;5037409;28;20025;-74
2022/07/12 09:49:44;;;;;;;9.23;1.67;;;;;;;;;;5036615;28;20113;-73
2022/07/12 09:52:12;;;;;;;6.13;1.10;;;;;;;;;;5035497;28;20114;-73
2022/07/12 09:54:42;;;;;;;9.70;1.60;;;;;;;;;;5018807;28;20402;-73
2022/07/12 09:57:30;;;;;;;7.93;1.50;;;;;;;;;;5024564;28;20951;-73
2022/07/12 09:59:57;;;;;;;6.13;1.30;;;;;;;;;;5029868;28;20480;-73
2022/07/12 10:02:24;;;;;;;11.18;1.42;;;;;;;;;;5037596;28;20463;-75
2022/07/12 10:04:52;;;;;;;4.88;1.20;;;;;;;;;;5023825;28;20056;-73
2022/07/12 10:07:19;;;;;;;6.10;1.20;;;;;;;;;;5029880;28;20673;-73
2022/07/12 10:09:51;;;;;;;5.95;1.30;;;;;;;;;;5030283;28;20032;-74
2022/07/12 10:12:19;;;;;;;16.92;1.80;;;;;;;;;;5036697;28;20033;-74
2022/07/12 10:14:46;;;;;;;11.63;2.15;;;;;;;;;;5034580;28;20196;-74
2022/07/12 10:17:13;;;;;;;6.45;1.30;;;;;;;;;;5037383;28;20151;-74
2022/07/12 10:19:40;;;;;;;6.93;1.40;;;;;;;;;;5001838;28;20408;-74
2022/07/12 10:22:07;;;;;;;5.03;1.15;;;;;;;;;;5033453;28;20025;-74
2022/07/12 10:24:36;;;;;;;5.63;1.40;;;;;;;;;;5036763;28;20512;-73
2022/07/12 10:27:21;;;;;;;5.70;1.20;;;;;;;;;;5035661;28;20136;-74
2022/07/12 10:29:53;;;;;;;6.72;1.73;;;;;;;;;;5036952;28;20032;-74
2022/07/12 10:32:35;;;;;;;7.72;1.60;;;;;;;;;;5035321;28;20036;-73
2022/07/12 10:35:07;;;;;;;4.72;1.50;;;;;;;;;;5034298;28;20733;-75
2022/07/12 10:37:35;;;;;;;7.07;1.45;;;;;;;;;;5035656;28;20040;-74
2022/07/12 10:40:16;;;;;;;7.43;1.60;;;;;;;;;;5040957;28;20025;-73
2022/07/12 10:43:10;;;;;;;13.57;2.28;;;;;;;;;;5028240;28;20032;-74
2022/07/12 10:45:41;;;;;;;5.75;1.60;;;;;;;;;;5018392;28;20037;-73
2022/07/12 10:48:10;;;;;;;8.65;2.45;;;;;;;;;;5040711;28;20032;-73
2022/07/12 10:50:48;;;;;;;6.85;2.15;;;;;;;;;;5019652;28;21439;-73
2022/07/12 10:53:23;;;;;;;6.82;2.00;;;;;;;;;;5038109;28;20033;-75
2022/07/12 10:56:08;;;;;;;6.10;1.60;;;;;;;;;;5033366;28;20064;-74
2022/07/12 10:58:50;;;;;;;6.30;1.65;;;;;;;;;;5038214;28;20110;-75
2022/07/12 11:01:26;;;;;;;6.35;1.13;;;;;;;;;;5031672;28;20035;-75
2022/07/12 11:03:56;;;;;;;7.68;1.40;;;;;;;;;;5020270;28;20106;-74
2022/07/12 11:06:25;;;;;;;6.80;1.30;;;;;;;;;;5041333;28;20045;-74
2022/07/12 11:09:08;;;;;;;6.93;1.35;;;;;;;;;;5022170;28;20059;-74
2022/07/12 11:11:45;;;;;;;5.55;1.20;;;;;;;;;;5020503;28;20182;-74
2022/07/12 11:14:20;;;;;;;5.80;1.40;;;;;;;;;;5018615;28;20431;-73
2022/07/12 11:16:51;;;;;;;5.22;1.30;;;;;;;;;;5016711;28;20037;-73
2022/07/12 11:19:22;;;;;;;2.60;1.00;;;;;;;;;;5022719;28;20040;-75
2022/07/12 11:21:55;;;;;;;6.95;1.25;;;;;;;;;;5043743;28;20779;-74
2022/07/12 11:24:23;;;;;;;4.68;1.30;;;;;;;;;;5019534;28;20378;-75
2022/07/12 11:26:52;;;;;;;3.97;1.35;;;;;;;;;;5018136;28;20032;-75
2022/07/12 11:29:19;;;;;;;5.20;1.20;;;;;;;;;;5026347;28;20104;-74
2022/07/12 11:31:47;;;;;;;4.03;1.25;;;;;;;;;;5011458;28;20110;-75
2022/07/12 11:34:21;;;;;;;4.82;1.45;;;;;;;;;;5031131;28;20023;-74
2022/07/12 11:36:51;;;;;;;4.00;1.30;;;;;;;;;;5031194;28;20035;-74
2022/07/12 11:39:33;;;;;;;5.43;1.23;;;;;;;;;;5016349;28;20675;-74
2022/07/12 11:41:59;;;;;;;7.90;1.73;;;;;;;;;;5006676;28;20104;-66
2022/07/12 11:44:45;;;;;;;4.63;1.42;;;;;;;;;;5036444;28;20120;-67
2022/07/12 11:47:12;;;;;;;6.35;1.50;;;;;;;;;;5037125;28;20735;-68
2022/07/12 11:49:46;;;;;;;4.43;1.48;;;;;;;;;;5030885;28;20211;-69
2022/07/12 11:52:17;;;;;;;5.40;1.50;;;;;;;;;;5038784;28;20039;-70
2022/07/12 11:54:47;;;;;;;5.97;1.60;;;;;;;;;;5025719;28;20817;-69
2022/07/12 11:57:14;;;;;;;6.18;1.33;;;;;;;;;;5016995;28;20079;-70
2022/07/12 11:59:42;;;;;;;4.10;1.10;;;;;;;;;;5030283;28;20644;-69
2022/07/12 12:02:13;;;;;;;5.22;1.40;;;;;;;;;;5012140;28;20120;-69
2022/07/12 12:04:53;;;;;;;5.25;1.17;;;;;;;;;;5007163;28;20454;-67
2022/07/12 12:07:21;;;;;;;7.22;1.40;;;;;;;;;;5015147;28;20036;-67
2022/07/12 12:10:18;;;;;;;3.28;0.95;;;;;;;;;;5026763;28;20036;-69
2022/07/12 12:12:47;;;;;;;7.00;1.25;;;;;;;;;;4947083;28;20077;-68
2022/07/12 12:15:14;;;;;;;5.95;1.40;;;;;;;;;;4945149;28;20370;-65
2022/07/12 12:18:08;;;;;;;4.90;1.48;;;;;;;;;;4923466;28;20465;-67
2022/07/12 12:20:39;;;;;;;5.90;1.10;;;;;;;;;;4927814;28;20050;-67
2022/07/12 12:23:21;;;;;;;5.63;1.30;;;;;;;;;;4946607;28;20073;-68
2022/07/12 12:25:48;;;;;;;13.23;1.40;;;;;;;;;;4929781;28;20791;-68
2022/07/12 12:28:16;;;;;;;5.82;1.38;;;;;;;;;;4934703;28;20046;-67
2022/07/12 12:30:51;;;;;;;5.70;1.23;;;;;;;;;;4930957;28;20120;-70
2022/07/12 12:33:38;;;;;;;6.22;1.23;;;;;;;;;;4950468;28;20050;-71
2022/07/12 12:36:15;;;;;;;5.53;1.40;;;;;;;;;;4958287;28;20045;-70
2022/07/12 12:38:42;;;;;;;4.20;1.10;;;;;;;;;;4931403;28;20038;-70
2022/07/12 12:41:10;;;;;;;6.18;1.30;;;;;;;;;;4957673;28;20758;-70
2022/07/12 12:43:39;;;;;;;5.57;1.20;;;;;;;;;;4951149;28;20047;-70
2022/07/12 12:46:07;;;;;;;4.82;1.30;;;;;;;;;;4943635;28;20253;-71
2022/07/12 12:48:37;;;;;;;8.18;1.02;;;;;;;;;;4974482;28;20609;-72
2022/07/12 12:51:13;;;;;;;5.65;1.10;;;;;;;;;;5040942;28;20033;-71
2022/07/12 12:53:41;;;;;;;6.60;1.30;;;;;;;;;;5030235;28;20040;-71
2022/07/12 12:56:11;;;;;;;4.38;1.38;;;;;;;;;;5026569;28;20149;-70
2022/07/12 12:58:39;;;;;;;4.13;1.10;;;;;;;;;;5016260;28;20045;-72
2022/07/12 13:01:08;;;;;;;5.72;1.38;;;;;;;;;;5036399;28;20036;-70
2022/07/12 13:03:40;;;;;;;6.28;1.20;;;;;;;;;;5022732;28;20090;-72
2022/07/12 13:06:08;;;;;;;4.55;1.45;;;;;;;;;;5027503;28;20034;-70
2022/07/12 13:08:36;;;;;;;6.35;1.15;;;;;;;;;;5034846;28;20036;-72
2022/07/12 13:11:18;;;;;;;6.57;1.17;;;;;;;;;;5031398;28;20478;-74
2022/07/12 13:13:44;;;;;;;6.00;1.15;;;;;;;;;;5022321;28;20110;-69
2022/07/12 13:16:12;;;;;;;7.82;1.13;;;;;;;;;;5030569;28;20033;-69
2022/07/12 13:18:40;;;;;;;5.40;1.10;;;;;;;;;;5030132;28;20451;-68
2022/07/12 13:21:07;;;;;;;5.13;1.20;;;;;;;;;;5038737;28;20283;-68
2022/07/12 13:23:33;;;;;;;6.13;1.33;;;;;;;;;;5025910;28;20080;-69
2022/07/12 13:26:00;;;;;;;5.43;1.30;;;;;;;;;;5012192;28;20036;-70
2022/07/12 13:28:28;;;;;;;8.02;1.42;;;;;;;;;;5031235;28;20037;-69
2022/07/12 13:30:56;;;;;;;5.68;1.10;;;;;;;;;;5029341;28;20432;-72
2022/07/12 13:33:26;;;;;;;3.83;1.10;;;;;;;;;;5027415;28;20040;-71
2022/07/12 13:35:54;;;;;;;2.70;1.00;;;;;;;;;;5038522;28;20029;-69
2022/07/12 13:38:20;;;;;;;4.50;1.10;;;;;;;;;;5041977;28;20044;-71
2022/07/12 13:40:49;;;;;;;4.03;1.10;;;;;;;;;;5014797;28;20028;-68
2022/07/12 13:43:18;;;;;;;3.78;1.17;;;;;;;;;;5037112;28;20144;-69
2022/07/12 13:45:46;;;;;;;4.28;1.10;;;;;;;;;;5012903;28;20048;-69
2022/07/12 13:48:13;;;;;;;5.28;1.17;;;;;;;;;;5032800;28;20031;-71
2022/07/12 13:50:40;;;;;;;7.63;1.33;;;;;;;;;;5012840;28;20045;-68
2022/07/12 13:53:08;;;;;;;3.55;1.17;;;;;;;;;;5034083;28;20021;-71
2022/07/12 13:55:35;;;;;;;2.63;0.90;;;;;;;;;;5033397;28;20071;-71
2022/07/12 13:58:04;;;;;;;5.82;1.20;;;;;;;;;;5023732;28;20465;-72
2022/07/12 14:00:31;;;;;;;4.60;1.20;;;;;;;;;;5043297;28;20035;-69
2022/07/12 14:02:59;;;;;;;4.43;1.30;;;;;;;;;;5026168;28;20033;-69
2022/07/12 14:05:26;;;;;;;6.00;1.20;;;;;;;;;;5024993;28;20575;-70
2022/07/12 14:07:54;;;;;;;5.07;1.10;;;;;;;;;;5021824;28;20325;-72
2022/07/12 14:10:25;;;;;;;8.45;1.42;;;;;;;;;;5038211;28;20301;-71
2022/07/12 14:12:52;;;;;;;6.18;1.30;;;;;;;;;;5031843;28;20028;-72
2022/07/12 14:15:39;;;;;;;7.95;2.92;;;;;;;;;;5045253;28;20115;-70
2022/07/12 14:18:06;;;;;;;3.88;1.38;;;;;;;;;;5042952;28;20032;-70
2022/07/12 14:20:37;;;;;;;7.15;1.35;;;;;;;;;;5029396;28;20029;-70
2022/07/12 14:23:11;;;;;;;5.55;1.20;;;;;;;;;;5032062;28;20044;-69
2022/07/12 14:25:39;;;;;;;7.45;1.20;;;;;;;;;;5003484;28;20367;-70
2022/07/12 14:28:12;;;;;;;2.80;1.00;;;;;;;;;;5034061;28;20056;-70
2022/07/12 14:30:40;;;;;;;6.60;1.20;;;;;;;;;;5021652;28;20104;-70
2022/07/12 14:33:06;;;;;;;8.20;1.35;;;;;;;;;;5004792;28;20685;-70
2022/07/12 14:35:33;;;;;;;3.28;1.05;;;;;;;;;;5012903;28;20053;-70
2022/07/12 14:38:01;;;;;;;9.10;1.30;;;;;;;;;;5012733;28;20037;-70
2022/07/12 14:40:29;;;;;;;4.05;1.20;;;;;;;;;;5010467;28;20121;-70
2022/07/12 14:42:59;;;;;;;6.18;1.48;;;;;;;;;;5006208;28;20040;-70
2022/07/12 14:45:27;;;;;;;6.60;1.08;;;;;;;;;;5008470;28;20029;-70
2022/07/12 14:47:55;;;;;;;4.53;1.27;;;;;;;;;;5002925;28;20029;-69
2022/07/12 14:50:23;;;;;;;5.30;1.10;;;;;;;;;;4999822;28;20455;-69
2022/07/12 14:52:50;;;;;;;5.03;1.30;;;;;;;;;;5017998;28;20040;-69
2022/07/12 14:55:17;;;;;;;7.28;1.60;;;;;;;;;;5006625;28;20028;-69
2022/07/12 14:57:45;;;;;;;4.07;1.15;;;;;;;;;;5017618;28;20729;-70
2022/07/12 15:00:17;;;;;;;8.00;1.30;;;;;;;;;;5007283;28;20025;-71
2022/07/12 15:02:44;;;;;;;5.07;1.20;;;;;;;;;;5003508;28;20064;-70